Time;durP1;ratioP1;P1;durP2;ratioP2;P2;SDS_P1;SDS_P2;PMS_P1;PMS_P2;Temp;Humidity;BMP_temperature;BMP_pressure;BME280_temperature;BME280_humidity;BME280_pressure;Samples;Min_cycle;Max_cycle;Signal;HPM_P1;HPM_P2
2022/01/28 00:05:13;;;;;;;16.35;10.07;;;1.60;99.90;;;;;;5051695;28;20114;-66
2022/01/28 00:07:39;;;;;;;19.38;11.60;;;1.60;99.90;;;;;;5051042;28;20048;-67
2022/01/28 00:10:06;;;;;;;;;;;1.60;99.90;;;;;;5051824;28;20076;-66
2022/01/28 00:12:35;;;;;;;17.75;9.07;;;1.60;99.90;;;;;;5048356;28;19932;-67
2022/01/28 00:15:16;;;;;;;15.05;9.38;;;1.60;99.90;;;;;;5029737;28;20483;-66
2022/01/28 00:37:10;;;;;;;16.42;9.55;;;1.90;99.90;;;;;;5053616;28;20055;-66
2022/01/28 00:39:37;;;;;;;15.48;9.02;;;2.00;99.90;;;;;;5054908;28;20061;-66
2022/01/28 00:42:03;;;;;;;;;;;2.00;99.90;;;;;;5054870;28;20049;-66
2022/01/28 00:44:30;;;;;;;13.82;7.75;;;2.00;99.90;;;;;;5054694;28;19924;-65
2022/01/28 00:46:57;;;;;;;;;;;2.10;99.90;;;;;;5053137;28;20064;-66
2022/01/28 00:49:25;;;;;;;15.47;8.73;;;2.00;99.90;;;;;;5055000;28;20010;-66
2022/01/28 00:51:52;;;;;;;15.52;8.98;;;2.00;99.90;;;;;;5054359;28;20060;-65
2022/01/28 00:54:18;;;;;;;14.20;8.48;;;2.00;99.90;;;;;;5055071;28;20133;-66
2022/01/28 00:56:46;;;;;;;14.55;9.15;;;2.00;99.90;;;;;;5053595;28;20497;-66
2022/01/28 00:59:14;;;;;;;11.70;8.68;;;2.00;99.90;;;;;;5053845;28;20056;-66
2022/01/28 01:01:41;;;;;;;12.82;8.73;;;1.90;99.90;;;;;;5054955;28;20041;-66
2022/01/28 01:04:09;;;;;;;11.40;7.65;;;1.90;99.90;;;;;;5053874;28;20080;-66
2022/01/28 01:06:35;;;;;;;13.57;7.70;;;1.80;99.90;;;;;;5052802;28;20066;-66
2022/01/28 01:09:02;;;;;;;;;;;1.80;99.90;;;;;;5054729;28;20980;-66
2022/01/28 01:11:29;;;;;;;10.90;7.32;;;1.80;99.90;;;;;;5055004;28;20263;-66
2022/01/28 01:13:57;;;;;;;8.77;6.18;;;1.70;99.90;;;;;;5049252;28;20311;-66
2022/01/28 01:16:44;;;;;;;10.73;6.68;;;1.70;99.90;;;;;;5033160;28;20462;-66
2022/01/28 01:21:39;;;;;;;;;;;1.60;99.90;;;;;;5055138;28;20072;-67
2022/01/28 01:24:09;;;;;;;10.85;6.95;;;1.60;99.90;;;;;;5055199;28;20348;-67
2022/01/28 01:26:39;;;;;;;12.60;7.75;;;1.60;99.90;;;;;;5054287;28;20584;-66
2022/01/28 01:29:09;;;;;;;13.43;8.68;;;1.60;99.90;;;;;;5054886;28;20669;-66
2022/01/28 01:31:40;;;;;;;11.27;7.60;;;1.50;99.90;;;;;;5055575;28;20045;-66
2022/01/28 01:34:14;;;;;;;13.35;8.68;;;1.50;99.90;;;;;;5054907;28;20506;-66
2022/01/28 01:36:42;;;;;;;14.65;9.65;;;1.40;99.90;;;;;;5053697;28;20049;-67
2022/01/28 01:39:10;;;;;;;14.25;9.45;;;1.40;99.90;;;;;;5054069;28;20044;-66
2022/01/28 01:41:50;;;;;;;14.73;9.10;;;1.40;99.90;;;;;;5054034;28;20057;-66
2022/01/28 01:52:45;;;;;;;21.23;12.27;;;1.40;99.90;;;;;;5053549;28;20542;-66
2022/01/28 01:55:12;;;;;;;21.95;12.25;;;1.30;99.90;;;;;;5053649;28;20546;-66
2022/01/28 01:57:39;;;;;;;19.20;11.27;;;1.40;99.90;;;;;;5053352;28;20102;-66
2022/01/28 02:00:07;;;;;;;21.70;12.25;;;1.30;99.90;;;;;;5052108;28;20473;-66
2022/01/28 02:02:34;;;;;;;21.40;12.43;;;1.40;99.90;;;;;;5053429;28;20105;-66
2022/01/28 02:05:04;;;;;;;19.65;11.93;;;1.30;99.90;;;;;;5053244;28;20143;-66
2022/01/28 02:07:31;;;;;;;19.48;11.95;;;1.30;99.90;;;;;;5053098;28;20090;-66
2022/01/28 02:09:58;;;;;;;21.40;12.63;;;1.30;99.90;;;;;;5053000;28;20374;-66
2022/01/28 02:12:24;;;;;;;;;;;1.30;99.90;;;;;;5053551;28;20049;-67
2022/01/28 02:14:51;;;;;;;20.73;12.18;;;1.20;99.90;;;;;;5049478;28;19929;-66
2022/01/28 02:17:18;;;;;;;;;;;1.20;99.90;;;;;;5034956;28;20037;-66
2022/01/28 02:19:45;;;;;;;20.42;12.38;;;1.30;99.90;;;;;;5053962;28;20384;-66
2022/01/28 02:22:12;;;;;;;;;;;1.30;99.90;;;;;;5053759;28;20071;-66
2022/01/28 02:24:43;;;;;;;21.20;11.25;;;1.30;99.90;;;;;;5053520;28;20414;-66
2022/01/28 02:27:12;;;;;;;20.98;12.43;;;1.30;99.90;;;;;;5052390;28;20474;-66
2022/01/28 02:29:41;;;;;;;19.25;12.45;;;1.30;99.90;;;;;;5052548;28;20588;-66
2022/01/28 02:32:08;;;;;;;25.13;13.13;;;1.30;99.90;;;;;;5053215;28;20059;-66
2022/01/28 02:34:38;;;;;;;18.20;12.10;;;1.20;99.90;;;;;;5053382;28;20055;-66
2022/01/28 02:37:05;;;;;;;24.13;13.32;;;1.20;99.90;;;;;;5053254;28;20167;-66
2022/01/28 02:39:33;;;;;;;20.92;12.57;;;1.30;99.90;;;;;;5052608;28;20044;-66
2022/01/28 02:42:16;;;;;;;;;;;1.30;99.90;;;;;;5053729;28;20044;-66
2022/01/28 02:47:14;;;;;;;;;;;1.30;99.90;;;;;;5053776;28;20101;-65
2022/01/28 02:49:43;;;;;;;18.35;11.60;;;1.30;99.90;;;;;;5051437;28;20465;-65
2022/01/28 02:52:18;;;;;;;21.48;12.35;;;1.30;99.90;;;;;;5053217;28;20076;-65
2022/01/28 02:54:48;;;;;;;19.05;11.60;;;1.30;99.90;;;;;;5052547;28;20457;-66
2022/01/28 02:57:20;;;;;;;20.65;10.77;;;1.40;99.90;;;;;;5034635;28;20051;-66
2022/01/28 02:59:47;;;;;;;17.13;10.48;;;1.40;99.90;;;;;;5052162;28;20235;-65
2022/01/28 03:02:13;;;;;;;;;;;1.40;99.90;;;;;;5052970;28;20045;-65
2022/01/28 03:07:10;;;;;;;14.27;8.40;;;1.40;99.90;;;;;;5046779;28;20576;-66
2022/01/28 03:12:33;;;;;;;14.73;9.00;;;1.40;99.90;;;;;;5039213;28;20047;-65
2022/01/28 03:15:05;;;;;;;16.05;9.07;;;1.40;99.90;;;;;;5071634;28;20441;-65
2022/01/28 03:20:35;;;;;;;14.25;7.95;;;1.40;99.90;;;;;;5015424;28;20637;-65
2022/01/28 03:23:02;;;;;;;11.73;7.50;;;1.40;99.90;;;;;;5032328;28;20049;-65
2022/01/28 03:25:29;;;;;;;12.60;7.70;;;1.40;99.90;;;;;;5032312;28;20077;-65
2022/01/28 03:27:59;;;;;;;;;;;1.40;99.90;;;;;;5032505;28;20238;-65
2022/01/28 03:30:26;;;;;;;13.13;8.40;;;1.30;99.90;;;;;;5031995;28;20483;-65
2022/01/28 03:32:53;;;;;;;12.70;8.63;;;1.30;99.90;;;;;;5032484;28;20468;-66
2022/01/28 03:35:28;;;;;;;9.50;6.88;;;1.30;99.90;;;;;;5031803;28;20591;-65
2022/01/28 03:38:02;;;;;;;8.48;6.65;;;1.40;99.90;;;;;;5030682;28;20558;-66
2022/01/28 03:40:37;;;;;;;11.55;7.55;;;1.30;99.90;;;;;;5031534;28;20048;-65
2022/01/28 03:43:06;;;;;;;10.40;6.72;;;1.40;99.90;;;;;;5034928;28;20064;-66
2022/01/28 03:45:34;;;;;;;13.27;8.90;;;1.40;99.90;;;;;;5051842;28;20067;-66
2022/01/28 03:48:01;;;;;;;10.15;7.13;;;1.40;99.90;;;;;;5052161;28;20486;-66
2022/01/28 03:50:32;;;;;;;12.73;8.20;;;1.40;99.90;;;;;;5051220;28;20406;-66
2022/01/28 03:53:00;;;;;;;14.00;8.38;;;1.50;99.90;;;;;;5052064;28;20040;-66
2022/01/28 03:55:27;;;;;;;12.73;7.88;;;1.50;99.90;;;;;;5052308;28;20048;-65
2022/01/28 03:57:54;;;;;;;;;;;1.50;99.90;;;;;;5052686;28;20607;-66
2022/01/28 04:00:27;;;;;;;19.23;9.93;;;1.50;99.90;;;;;;5050900;28;20480;-65
2022/01/28 04:03:04;;;;;;;15.23;8.93;;;1.40;99.90;;;;;;5035669;28;20048;-66
2022/01/28 04:13:33;;;;;;;24.70;15.02;;;1.50;99.90;;;;;;5035628;28;20052;-66
2022/01/28 04:17:19;;;;;;;;;;;1.50;99.90;;;;;;5036713;28;20044;-66
2022/01/28 04:18:53;;;;;;;23.85;13.52;;;1.40;99.90;;;;;;5034388;28;20442;-65
2022/01/28 04:21:20;;;;;;;21.05;12.75;;;1.40;99.90;;;;;;5035960;28;20384;-66
2022/01/28 04:23:47;;;;;;;;;;;1.40;99.90;;;;;;5035818;28;20057;-65
2022/01/28 04:26:16;;;;;;;24.13;13.52;;;1.40;99.90;;;;;;5035755;28;20631;-65
2022/01/28 04:28:42;;;;;;;;;;;1.40;99.90;;;;;;5035622;28;20049;-65
2022/01/28 04:31:09;;;;;;;23.13;12.48;;;1.40;99.90;;;;;;5035619;28;19982;-65
2022/01/28 04:33:37;;;;;;;23.75;13.52;;;1.40;99.90;;;;;;5034855;28;20395;-65
2022/01/28 04:36:05;;;;;;;19.42;11.65;;;1.40;99.90;;;;;;5035695;28;20052;-65
2022/01/28 04:38:44;;;;;;;22.45;13.30;;;1.40;99.90;;;;;;5036018;28;20045;-65
2022/01/28 04:41:21;;;;;;;22.55;12.75;;;1.40;99.90;;;;;;5035002;28;20305;-65
2022/01/28 04:43:55;;;;;;;21.33;12.57;;;1.40;99.90;;;;;;5043704;28;20060;-66
2022/01/28 04:49:03;;;;;;;18.95;11.43;;;1.40;99.90;;;;;;5037590;28;20429;-66
2022/01/28 04:51:53;;;;;;;18.52;11.95;;;1.40;99.90;;;;;;5055357;28;20049;-65
2022/01/28 04:55:13;;;;;;;22.52;13.40;;;1.30;99.90;;;;;;5055469;28;20690;-66
2022/01/28 05:00:01;;;;;;;22.85;12.60;;;1.30;99.90;;;;;;5053590;28;20486;-65
2022/01/28 05:05:28;;;;;;;15.57;10.55;;;1.30;99.90;;;;;;5054981;28;20041;-65
2022/01/28 05:27:26;;;;;;;22.92;11.32;;;1.20;99.90;;;;;;5034281;28;20507;-65
2022/01/28 05:29:53;;;;;;;16.45;10.32;;;1.20;99.90;;;;;;5033999;28;20533;-65
2022/01/28 05:32:20;;;;;;;17.20;10.68;;;1.20;99.90;;;;;;5034265;28;20353;-65
2022/01/28 05:34:47;;;;;;;20.38;12.00;;;1.20;99.90;;;;;;5034318;28;20526;-65
2022/01/28 05:37:13;;;;;;;14.35;9.52;;;1.20;99.90;;;;;;5033893;28;20047;-65
2022/01/28 05:39:40;;;;;;;;;;;1.20;99.90;;;;;;5034462;28;20045;-66
2022/01/28 05:42:07;;;;;;;17.23;10.43;;;1.10;99.90;;;;;;5032564;28;20391;-65
2022/01/28 05:44:34;;;;;;;19.67;10.52;;;1.20;99.90;;;;;;5049031;28;20459;-65
2022/01/28 05:47:03;;;;;;;18.63;11.85;;;1.10;99.90;;;;;;5054297;28;20048;-65
2022/01/28 05:49:30;;;;;;;15.50;9.88;;;1.10;99.90;;;;;;5053621;28;20137;-65
2022/01/28 05:51:58;;;;;;;19.60;10.27;;;1.10;99.90;;;;;;5053518;28;20468;-65
2022/01/28 05:54:25;;;;;;;14.98;10.55;;;1.10;99.90;;;;;;5053207;28;20307;-65
2022/01/28 05:56:52;;;;;;;;;;;1.10;99.90;;;;;;5054892;28;20033;-65
2022/01/28 05:59:19;;;;;;;15.32;9.88;;;1.10;99.90;;;;;;5053428;28;19924;-65
2022/01/28 06:01:46;;;;;;;17.10;9.82;;;1.10;99.90;;;;;;5053695;28;20689;-65
2022/01/28 06:04:15;;;;;;;17.50;9.50;;;1.00;99.90;;;;;;5053905;28;20063;-65
2022/01/28 06:06:42;;;;;;;19.98;11.82;;;1.00;99.90;;;;;;5053277;28;20556;-65
2022/01/28 06:09:09;;;;;;;20.33;12.10;;;1.00;99.90;;;;;;5053821;28;20094;-65
2022/01/28 06:11:37;;;;;;;;;;;1.00;99.90;;;;;;5054025;28;20170;-65
2022/01/28 06:14:04;;;;;;;18.88;10.32;;;1.00;99.90;;;;;;5053590;28;19964;-65
2022/01/28 06:16:31;;;;;;;18.73;11.02;;;1.00;99.90;;;;;;5053530;28;20079;-65
2022/01/28 06:18:57;;;;;;;;;;;1.00;99.90;;;;;;5051175;28;20087;-64
2022/01/28 06:21:24;;;;;;;14.35;9.32;;;1.00;99.90;;;;;;5031255;28;19932;-65
2022/01/28 06:23:52;;;;;;;;;;;1.00;99.90;;;;;;5031692;28;20834;-64
2022/01/28 06:26:19;;;;;;;18.65;10.60;;;1.00;99.90;;;;;;5033208;28;19940;-65
2022/01/28 06:28:46;;;;;;;17.67;11.70;;;1.00;99.90;;;;;;5032885;28;20504;-64
2022/01/28 06:31:12;;;;;;;24.38;11.43;;;1.00;99.90;;;;;;5032853;28;20049;-64
2022/01/28 06:33:40;;;;;;;16.85;9.68;;;1.00;99.90;;;;;;5032768;28;20094;-65
2022/01/28 06:36:06;;;;;;;14.45;8.68;;;1.00;99.90;;;;;;5032342;28;20038;-65
2022/01/28 06:38:33;;;;;;;;;;;1.00;99.90;;;;;;5033739;28;20048;-65
2022/01/28 06:41:00;;;;;;;16.50;9.13;;;1.00;99.90;;;;;;5031650;28;19987;-64
2022/01/28 06:43:26;;;;;;;;;;;1.00;99.90;;;;;;5038597;28;20461;-64
2022/01/28 06:45:53;;;;;;;14.35;8.18;;;1.00;99.90;;;;;;5052562;28;20013;-65
2022/01/28 06:48:20;;;;;;;;;;;1.10;99.90;;;;;;5051990;28;20127;-65
2022/01/28 06:50:48;;;;;;;15.45;10.05;;;1.10;99.90;;;;;;5050412;28;19931;-65
2022/01/28 06:53:15;;;;;;;15.75;10.18;;;1.10;99.90;;;;;;5051746;28;20051;-65
2022/01/28 06:55:43;;;;;;;15.73;10.10;;;1.10;99.90;;;;;;5052287;28;20048;-65
2022/01/28 06:58:10;;;;;;;16.67;11.10;;;1.10;99.90;;;;;;5052907;28;20053;-59
2022/01/28 07:00:39;;;;;;;22.25;10.15;;;1.10;99.90;;;;;;5050316;28;20051;-58
2022/01/28 07:03:12;;;;;;;23.35;10.93;;;1.10;99.90;;;;;;5052917;28;20070;-58
2022/01/28 07:05:40;;;;;;;17.23;9.85;;;1.10;99.90;;;;;;5052181;28;20094;-58
2022/01/28 07:08:08;;;;;;;16.17;9.38;;;1.10;99.90;;;;;;5052583;28;20044;-59
2022/01/28 07:10:35;;;;;;;19.15;9.48;;;1.10;99.90;;;;;;5052550;28;20298;-58
2022/01/28 07:13:02;;;;;;;14.55;9.05;;;1.10;99.90;;;;;;5050605;28;20037;-58
2022/01/28 07:15:29;;;;;;;16.17;10.10;;;1.20;99.90;;;;;;5052045;28;20045;-58
2022/01/28 07:18:00;;;;;;;18.67;9.90;;;1.20;99.90;;;;;;5052029;28;20056;-58
2022/01/28 07:20:29;;;;;;;16.95;10.52;;;1.20;99.90;;;;;;5045964;28;20405;-58
2022/01/28 07:22:56;;;;;;;16.25;10.27;;;1.20;99.90;;;;;;5030221;28;20526;-58
2022/01/28 07:25:24;;;;;;;14.63;9.23;;;1.20;99.90;;;;;;5032847;28;20134;-58
2022/01/28 07:27:51;;;;;;;;;;;1.20;99.90;;;;;;5033403;28;20072;-58
2022/01/28 07:30:17;;;;;;;17.27;9.85;;;1.20;99.90;;;;;;5031631;28;19931;-58
2022/01/28 07:32:44;;;;;;;;;;;1.20;99.90;;;;;;5047508;28;20044;-58
2022/01/28 07:35:12;;;;;;;13.63;8.63;;;1.30;99.90;;;;;;5050660;28;20005;-58
2022/01/28 07:37:38;;;;;;;13.43;9.07;;;1.30;99.90;;;;;;5050205;28;20056;-58
2022/01/28 07:40:06;;;;;;;;;;;1.30;99.90;;;;;;5051512;28;20073;-58
2022/01/28 07:42:35;;;;;;;14.55;8.95;;;1.30;99.90;;;;;;5051626;28;20518;-59
2022/01/28 07:45:05;;;;;;;14.60;9.35;;;1.30;99.90;;;;;;5050867;28;20368;-59
2022/01/28 07:47:32;;;;;;;18.60;11.07;;;1.30;99.90;;;;;;5050914;28;20537;-58
2022/01/28 07:49:59;;;;;;;16.45;9.25;;;1.30;99.90;;;;;;5049880;28;20041;-58
2022/01/28 07:52:26;;;;;;;;;;;1.40;99.90;;;;;;5050935;28;20512;-59
2022/01/28 07:54:53;;;;;;;17.55;9.52;;;1.40;99.90;;;;;;5051433;28;19991;-59
2022/01/28 07:57:20;;;;;;;15.30;9.15;;;1.40;99.90;;;;;;5051225;28;20387;-58
2022/01/28 07:59:47;;;;;;;16.33;9.98;;;1.40;99.90;;;;;;5050667;28;20117;-58
2022/01/28 08:02:14;;;;;;;15.15;9.00;;;1.40;99.90;;;;;;5050985;28;20056;-58
2022/01/28 08:04:41;;;;;;;20.90;11.25;;;1.40;99.90;;;;;;5049963;28;20044;-58
2022/01/28 08:07:08;;;;;;;;;;;1.40;99.90;;;;;;5051268;28;20052;-58
2022/01/28 08:09:35;;;;;;;15.82;9.10;;;1.40;99.90;;;;;;5049365;28;19935;-58
2022/01/28 08:12:01;;;;;;;;;;;1.40;99.90;;;;;;5049603;28;20171;-58
2022/01/28 08:14:31;;;;;;;12.98;8.70;;;1.40;99.90;;;;;;5049293;28;19958;-58
2022/01/28 08:16:59;;;;;;;16.67;9.75;;;1.40;99.90;;;;;;5051069;28;20051;-58
2022/01/28 08:19:25;;;;;;;17.90;11.27;;;1.40;99.90;;;;;;5050236;28;20044;-58
2022/01/28 08:21:52;;;;;;;;;;;1.40;99.90;;;;;;5040991;28;20055;-58
2022/01/28 08:24:19;;;;;;;16.60;9.65;;;1.30;99.90;;;;;;5036193;28;19964;-58
2022/01/28 08:26:46;;;;;;;14.88;9.73;;;1.30;99.90;;;;;;5049140;28;20568;-58
2022/01/28 08:29:13;;;;;;;18.25;9.65;;;1.30;99.90;;;;;;5050126;28;20423;-58
2022/01/28 08:31:41;;;;;;;19.58;10.25;;;1.40;99.90;;;;;;5050581;28;20591;-58
2022/01/28 08:34:08;;;;;;;21.63;10.40;;;1.50;99.90;;;;;;5051008;28;20340;-58
2022/01/28 08:36:34;;;;;;;;;;;1.60;99.90;;;;;;5051049;28;20044;-58
2022/01/28 08:39:04;;;;;;;21.83;12.23;;;1.90;99.90;;;;;;5050756;28;20318;-58
2022/01/28 08:41:32;;;;;;;24.23;12.40;;;2.20;99.90;;;;;;5051143;28;20502;-58
2022/01/28 08:43:59;;;;;;;20.88;11.68;;;2.50;99.90;;;;;;5047882;28;20043;-58
2022/01/28 08:46:26;;;;;;;21.55;11.65;;;2.80;99.90;;;;;;5051189;28;20545;-58
2022/01/28 08:48:53;;;;;;;19.63;11.82;;;3.20;99.90;;;;;;5052884;28;20070;-58
2022/01/28 08:51:20;;;;;;;23.85;11.98;;;3.40;99.90;;;;;;5053643;28;20040;-58
2022/01/28 08:53:47;;;;;;;;;;;3.80;99.90;;;;;;5054773;28;20052;-58
2022/01/28 08:56:14;;;;;;;15.32;10.30;;;4.00;99.90;;;;;;5054495;28;19931;-58
2022/01/28 08:58:40;;;;;;;;;;;4.20;99.90;;;;;;5054527;28;20449;-58
2022/01/28 09:01:09;;;;;;;17.35;11.13;;;4.30;99.90;;;;;;5053885;28;20126;-58
2022/01/28 09:03:36;;;;;;;19.75;11.48;;;4.40;99.90;;;;;;5054084;28;20720;-57
2022/01/28 09:06:03;;;;;;;17.33;10.05;;;4.50;99.90;;;;;;5053272;28;20052;-58
2022/01/28 09:08:30;;;;;;;;;;;4.50;99.90;;;;;;5054768;28;20052;-57
2022/01/28 09:10:59;;;;;;;23.83;10.82;;;4.60;99.90;;;;;;5053342;28;19927;-58
2022/01/28 09:13:37;;;;;;;17.95;10.52;;;4.60;99.90;;;;;;5053453;28;20056;-60
2022/01/28 09:16:04;;;;;;;12.90;7.88;;;4.60;99.90;;;;;;5054104;28;20051;-59
2022/01/28 09:18:31;;;;;;;14.07;9.25;;;4.60;99.90;;;;;;5053190;28;20273;-59
2022/01/28 09:20:58;;;;;;;12.13;8.73;;;4.60;99.90;;;;;;5052651;28;20611;-59
2022/01/28 09:23:25;;;;;;;;;;;4.70;99.90;;;;;;5039613;28;20094;-57
2022/01/28 09:25:53;;;;;;;13.90;9.40;;;4.80;99.90;;;;;;5033127;28;19994;-59
2022/01/28 09:28:19;;;;;;;14.43;8.63;;;4.90;99.90;;;;;;5033730;28;20055;-59
2022/01/28 09:30:46;;;;;;;;;;;5.10;99.90;;;;;;5032977;28;20482;-58
2022/01/28 09:33:13;;;;;;;12.95;8.23;;;5.30;99.90;;;;;;5033483;28;19955;-58
2022/01/28 09:35:41;;;;;;;14.68;7.47;;;5.60;99.90;;;;;;5032719;28;20041;-57
2022/01/28 09:38:09;;;;;;;11.27;7.43;;;5.80;99.90;;;;;;5033129;28;20065;-57
2022/01/28 09:40:36;;;;;;;12.60;7.43;;;6.00;99.90;;;;;;5039027;28;20214;-58
2022/01/28 09:43:05;;;;;;;14.70;7.80;;;6.20;99.90;;;;;;5051279;28;20057;-58
2022/01/28 09:45:32;;;;;;;12.20;8.02;;;6.20;99.90;;;;;;5051426;28;20044;-58
2022/01/28 09:48:00;;;;;;;15.75;8.40;;;6.10;99.90;;;;;;5051451;28;20056;-58
2022/01/28 09:50:29;;;;;;;12.27;8.13;;;6.00;99.90;;;;;;5052364;28;20117;-57
2022/01/28 09:52:57;;;;;;;12.55;8.77;;;5.80;99.90;;;;;;5053370;28;20048;-59
2022/01/28 09:55:26;;;;;;;18.77;10.13;;;5.70;99.90;;;;;;5053648;28;20040;-59
2022/01/28 09:57:59;;;;;;;14.93;8.35;;;5.50;99.90;;;;;;5052147;28;20052;-58
2022/01/28 10:00:28;;;;;;;14.18;10.20;;;5.30;99.90;;;;;;5032751;28;20047;-59
2022/01/28 10:03:03;;;;;;;23.25;11.48;;;5.20;99.90;;;;;;5032942;28;20400;-58
2022/01/28 10:05:36;;;;;;;17.98;11.70;;;5.10;99.90;;;;;;5032170;28;20250;-58
2022/01/28 10:08:12;;;;;;;18.95;11.02;;;5.00;99.90;;;;;;5052116;28;20068;-58
2022/01/28 10:10:44;;;;;;;22.98;13.13;;;4.90;99.90;;;;;;5030040;28;20116;-58
2022/01/28 10:13:16;;;;;;;17.42;12.43;;;4.80;99.90;;;;;;5030402;28;20278;-58
2022/01/28 10:15:53;;;;;;;16.50;12.07;;;4.70;99.90;;;;;;5031583;28;20099;-58
2022/01/28 10:18:21;;;;;;;17.30;11.40;;;4.70;99.90;;;;;;5040932;28;20082;-58
2022/01/28 10:20:47;;;;;;;20.13;13.77;;;4.80;99.90;;;;;;5052186;28;20052;-57
2022/01/28 10:23:14;;;;;;;;;;;4.70;99.90;;;;;;5049702;28;20056;-58
2022/01/28 10:25:42;;;;;;;19.80;13.13;;;4.60;99.90;;;;;;5030560;28;19970;-58
2022/01/28 10:28:11;;;;;;;22.75;14.57;;;4.50;99.90;;;;;;5046689;28;20083;-58
2022/01/28 10:30:42;;;;;;;25.10;15.27;;;4.40;99.90;;;;;;5049758;28;20272;-58
2022/01/28 10:33:09;;;;;;;23.85;14.57;;;4.30;99.90;;;;;;5052135;28;20080;-58
2022/01/28 10:35:36;;;;;;;22.67;14.70;;;4.20;99.90;;;;;;5051269;28;20049;-58
2022/01/28 10:38:07;;;;;;;23.40;14.00;;;4.20;99.90;;;;;;5051934;28;20040;-58
2022/01/28 10:40:34;;;;;;;23.88;15.45;;;4.20;99.90;;;;;;5050253;28;20079;-57
2022/01/28 10:43:01;;;;;;;25.15;15.38;;;4.40;99.90;;;;;;5051769;28;20516;-58
2022/01/28 10:45:32;;;;;;;;;;;4.60;99.90;;;;;;5050949;28;20041;-57
2022/01/28 10:47:59;;;;;;;23.70;14.77;;;4.80;99.90;;;;;;5050965;28;20352;-57
2022/01/28 10:50:33;;;;;;;24.23;15.15;;;4.80;99.90;;;;;;5049355;28;20482;-58
2022/01/28 10:53:10;;;;;;;28.25;14.73;;;4.80;99.90;;;;;;5052369;28;20052;-56
2022/01/28 10:55:38;;;;;;;22.35;14.18;;;4.70;99.90;;;;;;5051764;28;20449;-58
2022/01/28 10:58:08;;;;;;;25.38;14.65;;;4.60;99.90;;;;;;5051574;28;20040;-58
2022/01/28 11:00:44;;;;;;;23.63;14.45;;;4.60;99.90;;;;;;5050016;28;20051;-58
2022/01/28 11:03:13;;;;;;;23.27;13.60;;;4.60;99.90;;;;;;5052431;28;20040;-58
2022/01/28 11:05:43;;;;;;;23.60;14.40;;;4.50;99.90;;;;;;5050203;28;20473;-58
2022/01/28 11:08:12;;;;;;;23.02;13.70;;;4.50;99.90;;;;;;5051265;28;20044;-58
2022/01/28 11:10:41;;;;;;;20.88;13.50;;;4.40;99.90;;;;;;5050717;28;20149;-58
2022/01/28 11:13:08;;;;;;;21.95;13.05;;;4.30;99.90;;;;;;5051449;28;20047;-58
2022/01/28 11:15:35;;;;;;;21.58;14.52;;;4.30;99.90;;;;;;5052087;28;20243;-58
2022/01/28 11:18:05;;;;;;;27.33;14.73;;;4.30;99.90;;;;;;5051107;28;20242;-59
2022/01/28 11:20:41;;;;;;;23.30;14.13;;;4.20;99.90;;;;;;5051647;28;20467;-58
2022/01/28 11:23:30;;;;;;;21.30;14.32;;;4.20;99.90;;;;;;5052089;28;20044;-58
2022/01/28 11:26:26;;;;;;;25.48;14.80;;;4.20;99.90;;;;;;5042004;28;20427;-58
2022/01/28 11:28:55;;;;;;;22.80;14.48;;;4.10;99.90;;;;;;5031226;28;20059;-58
2022/01/28 11:31:42;;;;;;;23.90;14.65;;;4.10;99.90;;;;;;5031611;28;20090;-58
2022/01/28 11:34:24;;;;;;;21.23;13.73;;;4.00;99.90;;;;;;5031471;28;20049;-58
2022/01/28 11:36:55;;;;;;;21.42;12.55;;;4.00;99.90;;;;;;5024631;28;20045;-58
2022/01/28 11:39:34;;;;;;;24.73;14.02;;;4.10;99.90;;;;;;4992544;28;20049;-58
2022/01/28 11:42:06;;;;;;;20.23;11.32;;;4.30;99.90;;;;;;5002287;28;20133;-58
2022/01/28 11:44:41;;;;;;;15.60;10.10;;;4.70;99.90;;;;;;4984132;28;20071;-57
2022/01/28 11:47:11;;;;;;;18.23;10.15;;;5.10;99.90;;;;;;5002622;28;20206;-58
2022/01/28 11:50:15;;;;;;;16.75;8.90;;;5.40;99.90;;;;;;4988041;28;20874;-58
2022/01/28 11:52:47;;;;;;;12.88;8.25;;;6.00;99.90;;;;;;4960429;28;20313;-58
2022/01/28 11:55:14;;;;;;;10.60;7.43;;;6.30;99.90;;;;;;4994689;28;20881;-58
2022/01/28 11:58:06;;;;;;;12.77;8.68;;;6.50;99.90;;;;;;4993360;28;20318;-58
2022/01/28 12:00:38;;;;;;;13.80;7.00;;;6.70;99.90;;;;;;4975672;28;20213;-58
2022/01/28 12:03:18;;;;;;;12.13;6.95;;;7.10;99.90;;;;;;4994329;28;20759;-58
2022/01/28 12:05:49;;;;;;;12.68;6.70;;;7.40;99.90;;;;;;4992819;28;20113;-58
2022/01/28 12:08:18;;;;;;;11.35;6.68;;;7.70;99.90;;;;;;5014137;28;20052;-58
2022/01/28 12:10:49;;;;;;;13.00;6.80;;;7.80;99.90;;;;;;4999293;28;20423;-58
2022/01/28 12:13:20;;;;;;;10.00;7.07;;;7.80;99.90;;;;;;5003447;28;20044;-58
2022/01/28 12:16:01;;;;;;;10.20;6.18;;;7.60;99.90;;;;;;5001713;28;20090;-58
2022/01/28 12:18:53;;;;;;;6.82;5.53;;;7.30;99.90;;;;;;4999678;28;20499;-58
2022/01/28 12:21:24;;;;;;;12.57;6.90;;;7.00;99.90;;;;;;5004316;28;20678;-58
2022/01/28 12:23:54;;;;;;;11.85;7.25;;;6.90;99.90;;;;;;5003505;28;20312;-58
2022/01/28 12:26:22;;;;;;;10.65;6.93;;;7.00;99.90;;;;;;4998988;28;20133;-58
2022/01/28 12:28:54;;;;;;;10.18;6.53;;;7.10;99.90;;;;;;4983656;28;20367;-58
2022/01/28 12:31:24;;;;;;;12.93;6.93;;;7.10;99.90;;;;;;4983675;28;20105;-58
2022/01/28 12:33:54;;;;;;;12.80;6.93;;;7.30;99.90;;;;;;4982767;28;20538;-58
2022/01/28 12:36:28;;;;;;;12.45;7.10;;;7.60;99.90;;;;;;4983547;28;20045;-58
2022/01/28 12:41:49;;;;;;;9.02;6.43;;;8.00;99.90;;;;;;4982865;28;20099;-58
2022/01/28 12:44:16;;;;;;;8.10;5.18;;;7.90;99.90;;;;;;4996912;28;20340;-59
2022/01/28 12:46:53;;;;;;;11.43;6.63;;;7.70;99.90;;;;;;5003645;28;20133;-59
2022/01/28 12:49:24;;;;;;;12.65;7.07;;;7.60;99.90;;;;;;5002169;28;20406;-59
2022/01/28 12:51:55;;;;;;;8.77;6.45;;;7.50;99.90;;;;;;5004842;28;20743;-59
2022/01/28 12:54:43;;;;;;;10.90;6.20;;;7.50;99.90;;;;;;5002811;28;20722;-61
2022/01/28 12:57:13;;;;;;;11.13;5.90;;;7.60;99.90;;;;;;5002508;28;20037;-59
2022/01/28 12:59:45;;;;;;;13.18;7.28;;;7.60;99.90;;;;;;5001395;28;20525;-59
2022/01/28 13:02:13;;;;;;;11.43;7.10;;;7.50;99.90;;;;;;5004310;28;20541;-59
2022/01/28 13:04:59;;;;;;;12.85;6.75;;;7.40;99.90;;;;;;4986336;28;20040;-59
2022/01/28 13:10:27;;;;;;;8.38;6.10;;;7.10;99.90;;;;;;5005012;28;20299;-58
2022/01/28 13:13:09;;;;;;;12.88;7.30;;;7.00;99.90;;;;;;5001417;28;20385;-58
2022/01/28 13:15:37;;;;;;;10.23;6.95;;;6.90;99.90;;;;;;5003058;28;20039;-59
2022/01/28 13:18:05;;;;;;;9.45;6.60;;;6.80;99.90;;;;;;5002786;28;20048;-59
2022/01/28 13:20:41;;;;;;;13.38;9.05;;;6.60;99.90;;;;;;5001580;28;20167;-59
2022/01/28 13:23:10;;;;;;;10.35;6.72;;;6.40;99.90;;;;;;5003945;28;20297;-58
2022/01/28 13:25:37;;;;;;;11.50;7.47;;;6.30;99.90;;;;;;5001708;28;20146;-59
2022/01/28 13:28:19;;;;;;;9.85;6.25;;;6.10;99.90;;;;;;4986288;28;20136;-58
2022/01/28 13:30:56;;;;;;;12.60;6.50;;;6.00;99.90;;;;;;5006370;28;20059;-58
2022/01/28 13:33:29;;;;;;;20.52;7.75;;;6.10;99.90;;;;;;5004331;28;20309;-58
2022/01/28 13:36:01;;;;;;;11.82;7.15;;;6.30;99.90;;;;;;5003157;28;20600;-58
2022/01/28 13:38:38;;;;;;;13.35;7.85;;;6.60;99.90;;;;;;5004717;28;20663;-59
2022/01/28 13:41:27;;;;;;;10.25;7.20;;;6.90;99.90;;;;;;5001310;28;20285;-59
2022/01/28 13:43:54;;;;;;;;;;;7.30;99.90;;;;;;4989050;28;20080;-58
2022/01/28 13:46:22;;;;;;;10.50;6.75;;;7.70;99.90;;;;;;5002563;28;19928;-59
2022/01/28 13:48:49;;;;;;;10.07;6.03;;;7.80;99.90;;;;;;5001771;28;20292;-59
2022/01/28 13:51:20;;;;;;;17.75;8.15;;;8.00;99.90;;;;;;5002856;28;20041;-59
2022/01/28 13:56:43;;;;;;;9.40;6.28;;;8.10;99.90;;;;;;5002711;28;20436;-59
2022/01/28 13:59:12;;;;;;;10.50;7.22;;;8.20;99.90;;;;;;5008251;28;20790;-59
2022/01/28 14:01:45;;;;;;;13.10;6.82;;;8.50;99.90;;;;;;4981529;28;20045;-59
2022/01/28 14:04:21;;;;;;;9.77;6.32;;;8.60;99.90;;;;;;4983548;28;20353;-59
2022/01/28 14:06:48;;;;;;;8.40;5.88;;;8.60;99.90;;;;;;4982037;28;20252;-59
2022/01/28 14:09:20;;;;;;;8.90;5.70;;;8.70;99.90;;;;;;4996738;28;20653;-59
2022/01/28 14:11:52;;;;;;;11.15;6.03;;;8.80;99.90;;;;;;4991494;28;20048;-56
2022/01/28 14:14:25;;;;;;;13.75;6.85;;;9.00;99.90;;;;;;5001266;28;20060;-56
2022/01/28 14:17:01;;;;;;;10.52;6.07;;;9.10;99.90;;;;;;5002095;28;20608;-54
2022/01/28 14:19:33;;;;;;;10.48;5.68;;;9.10;99.60;;;;;;4989086;28;20473;-55
2022/01/28 14:22:12;;;;;;;11.45;5.95;;;9.10;99.10;;;;;;5002095;28;20281;-54
2022/01/28 14:24:52;;;;;;;11.77;6.13;;;9.10;97.20;;;;;;5000624;28;20052;-52
2022/01/28 14:30:04;;;;;;;11.60;7.23;;;9.20;98.20;;;;;;4993188;28;20562;-54
2022/01/28 14:32:33;;;;;;;12.85;7.68;;;9.30;98.60;;;;;;4982627;28;20746;-53
2022/01/28 14:35:01;;;;;;;9.82;6.38;;;9.20;96.10;;;;;;4982934;28;20052;-54
2022/01/28 14:37:30;;;;;;;10.75;6.38;;;9.10;96.10;;;;;;4981130;28;20289;-54
2022/01/28 14:39:57;;;;;;;12.38;7.10;;;8.90;95.70;;;;;;4982983;28;20348;-54
2022/01/28 14:42:24;;;;;;;10.15;6.63;;;8.70;96.60;;;;;;4979807;28;20376;-53